TimeMST,TemperatureF,Dew PointF,Humidity,Sea Level PressureIn,VisibilityMPH,Wind Direction,Wind SpeedMPH,Gust SpeedMPH,PrecipitationIn,Events,Conditions,WindDirDegrees,DateUTC
12:15 AM,28.4,8.6,43,30.14,10.0,Calm,Calm,-,N/A,,Scattered Clouds,0,2013-02-08 07:15:00
12:35 AM,26.6,6.8,43,30.14,10.0,Calm,Calm,-,N/A,,Scattered Clouds,0,2013-02-08 07:35:00
12:55 AM,26.6,8.6,47,30.13,10.0,Calm,Calm,-,N/A,,Partly Cloudy,0,2013-02-08 07:55:00
1:15 AM,30.2,10.4,44,30.12,10.0,Calm,Calm,-,N/A,,Clear,0,2013-02-08 08:15:00
1:35 AM,30.2,10.4,44,30.13,10.0,Calm,Calm,-,N/A,,Mostly Cloudy,0,2013-02-08 08:35:00
1:55 AM,30.2,12.2,47,30.12,10.0,NE,3.5,-,N/A,,Mostly Cloudy,40,2013-02-08 08:55:00
2:35 AM,28.4,12.2,51,30.11,10.0,NW,5.8,-,N/A,,Clear,310,2013-02-08 09:35:00
2:55 AM,26.6,12.2,55,30.11,10.0,NNW,5.8,-,N/A,,Clear,330,2013-02-08 09:55:00
3:15 AM,26.6,14.0,59,30.11,10.0,Calm,Calm,-,N/A,,Clear,0,2013-02-08 10:15:00
3:35 AM,26.6,14.0,59,30.10,10.0,Calm,Calm,-,N/A,,Clear,0,2013-02-08 10:35:00
3:55 AM,24.8,12.2,59,30.10,10.0,Calm,Calm,-,N/A,,Clear,0,2013-02-08 10:55:00
4:15 AM,24.8,10.4,54,30.10,10.0,Calm,Calm,-,N/A,,Clear,0,2013-02-08 11:15:00
4:35 AM,24.8,10.4,54,30.09,10.0,Calm,Calm,-,N/A,,Clear,0,2013-02-08 11:35:00
5:50 AM,28.4,14.0,55,30.09,10.0,Calm,Calm,-,N/A,,Clear,0,2013-02-08 12:50:00
6:50 AM,26.6,14.0,59,30.08,10.0,NNE,3.5,-,N/A,,Mostly Cloudy,30,2013-02-08 13:50:00
7:50 AM,28.4,15.8,59,30.08,10.0,Calm,Calm,-,N/A,,Overcast,0,2013-02-08 14:50:00
8:50 AM,33.8,17.6,52,30.08,10.0,NE,3.5,-,N/A,,Overcast,40,2013-02-08 15:50:00
9:50 AM,39.2,17.6,42,30.06,10.0,ESE,9.2,-,N/A,,Overcast,110,2013-02-08 16:50:00
10:50 AM,41.0,17.6,39,30.05,10.0,SE,8.1,-,N/A,,Overcast,140,2013-02-08 17:50:00
11:50 AM,42.8,17.6,36,30.00,10.0,SE,11.5,-,N/A,,Overcast,130,2013-02-08 18:50:00
12:50 PM,46.4,44.6,93,29.94,10.0,SE,13.8,-,N/A,,Overcast,130,2013-02-08 19:50:00
1:50 PM,51.8,19.4,28,29.90,10.0,SSE,21.9,29.9,N/A,,Overcast,150,2013-02-08 20:50:00
2:50 PM,51.8,17.6,26,29.87,10.0,SSE,25.3,33.4,N/A,,Overcast,150,2013-02-08 21:50:00
3:50 PM,44.6,19.4,37,29.84,10.0,SSE,28.8,-,N/A,,Overcast,160,2013-02-08 22:50:00
4:50 PM,50.0,17.6,28,29.82,10.0,SSE,29.9,-,N/A,,Mostly Cloudy,160,2013-02-08 23:50:00
5:50 PM,48.2,15.8,27,29.82,10.0,SSE,23.0,-,N/A,,Mostly Cloudy,150,2013-02-09 00:50:00
6:50 PM,46.4,17.6,32,29.83,10.0,SSE,19.6,-,N/A,,Clear,160,2013-02-09 01:50:00
9:15 PM,41.0,14.0,33,29.83,10.0,South,10.4,-,N/A,,Clear,190,2013-02-09 04:15:00
9:35 PM,39.2,14.0,36,29.82,10.0,South,9.2,-,N/A,,Clear,180,2013-02-09 04:35:00
9:55 PM,37.4,14.0,38,29.82,10.0,South,8.1,-,N/A,,Clear,190,2013-02-09 04:55:00
10:15 PM,35.6,12.2,38,29.82,10.0,South,9.2,-,N/A,,Clear,190,2013-02-09 05:15:00
10:35 PM,37.4,14.0,38,29.81,10.0,South,9.2,-,N/A,,Clear,190,2013-02-09 05:35:00
10:55 PM,41.0,14.0,33,29.80,10.0,South,13.8,-,N/A,,Clear,180,2013-02-09 05:55:00
11:15 PM,39.2,14.0,36,29.79,10.0,South,15.0,-,N/A,,Clear,180,2013-02-09 06:15:00
11:35 PM,39.2,15.8,39,29.79,10.0,South,13.8,-,N/A,,Clear,180,2013-02-09 06:35:00
11:55 PM,41.0,15.8,36,29.78,10.0,South,16.1,-,N/A,,Clear,180,2013-02-09 06:55:00